sensor_id;sensor_type;location;lat;lon;timestamp;pressure;altitude;pressure_sealevel;temperature;humidity
80164;BME280;69489;55.130;61.268;2023-04-24T00:00:19;98449.41;;;11.59;37.08
80164;BME280;69489;55.130;61.268;2023-04-24T00:02:46;98465.97;;;11.61;37.38
80164;BME280;69489;55.130;61.268;2023-04-24T00:05:13;98467.19;;;11.65;37.30
80164;BME280;69489;55.130;61.268;2023-04-24T00:07:40;98457.78;;;11.56;36.84
80164;BME280;69489;55.130;61.268;2023-04-24T00:10:06;98471.47;;;11.73;36.92
80164;BME280;69489;55.130;61.268;2023-04-24T00:12:32;98482.09;;;11.60;37.45
80164;BME280;69489;55.130;61.268;2023-04-24T00:14:58;98480.69;;;11.64;37.16
80164;BME280;69489;55.130;61.268;2023-04-24T00:17:24;98469.03;;;11.58;37.00
80164;BME280;69489;55.130;61.268;2023-04-24T00:19:50;98483.94;;;11.59;36.96
80164;BME280;69489;55.130;61.268;2023-04-24T00:22:17;98483.56;;;11.55;37.56
80164;BME280;69489;55.130;61.268;2023-04-24T00:24:43;98482.53;;;11.63;37.12
80164;BME280;69489;55.130;61.268;2023-04-24T00:27:09;98469.22;;;11.50;37.15
80164;BME280;69489;55.130;61.268;2023-04-24T00:29:35;98481.09;;;11.54;37.00
80164;BME280;69489;55.130;61.268;2023-04-24T00:32:00;98488.84;;;11.49;36.99
80164;BME280;69489;55.130;61.268;2023-04-24T00:34:26;98481.88;;;11.41;37.38
80164;BME280;69489;55.130;61.268;2023-04-24T00:36:52;98484.94;;;11.45;36.98
80164;BME280;69489;55.130;61.268;2023-04-24T00:39:19;98495.41;;;11.53;37.59
80164;BME280;69489;55.130;61.268;2023-04-24T00:41:47;98508.50;;;11.68;37.22
80164;BME280;69489;55.130;61.268;2023-04-24T00:44:14;98513.19;;;11.59;37.20
80164;BME280;69489;55.130;61.268;2023-04-24T00:46:40;98520.13;;;11.67;37.29
80164;BME280;69489;55.130;61.268;2023-04-24T00:49:06;98508.28;;;11.56;36.98
80164;BME280;69489;55.130;61.268;2023-04-24T00:51:32;98522.16;;;11.51;37.35
80164;BME280;69489;55.130;61.268;2023-04-24T00:53:59;98525.03;;;11.50;37.44
80164;BME280;69489;55.130;61.268;2023-04-24T00:56:25;98511.50;;;11.38;37.45
80164;BME280;69489;55.130;61.268;2023-04-24T00:58:51;98512.72;;;11.35;36.96
80164;BME280;69489;55.130;61.268;2023-04-24T01:01:19;98532.41;;;11.48;37.03
80164;BME280;69489;55.130;61.268;2023-04-24T01:03:47;98523.59;;;11.41;36.62
80164;BME280;69489;55.130;61.268;2023-04-24T01:06:14;98535.44;;;11.51;36.48
80164;BME280;69489;55.130;61.268;2023-04-24T01:08:41;98528.50;;;11.44;36.50
80164;BME280;69489;55.130;61.268;2023-04-24T01:11:07;98533.81;;;11.50;36.33
80164;BME280;69489;55.130;61.268;2023-04-24T01:13:33;98541.56;;;11.52;36.29
80164;BME280;69489;55.130;61.268;2023-04-24T01:16:00;98552.25;;;11.59;36.22
80164;BME280;69489;55.130;61.268;2023-04-24T01:18:27;98533.00;;;11.56;36.21
80164;BME280;69489;55.130;61.268;2023-04-24T01:20:55;98559.00;;;11.74;36.28
80164;BME280;69489;55.130;61.268;2023-04-24T01:23:22;98548.59;;;11.80;36.17
80164;BME280;69489;55.130;61.268;2023-04-24T01:25:49;98525.47;;;11.60;35.67
80164;BME280;69489;55.130;61.268;2023-04-24T01:28:16;98540.00;;;11.71;36.00
80164;BME280;69489;55.130;61.268;2023-04-24T01:30:42;98553.28;;;11.91;35.60
80164;BME280;69489;55.130;61.268;2023-04-24T01:33:08;98536.50;;;11.70;35.39
80164;BME280;69489;55.130;61.268;2023-04-24T01:35:35;98559.81;;;11.82;35.70
80164;BME280;69489;55.130;61.268;2023-04-24T01:38:01;98575.38;;;11.91;35.27
80164;BME280;69489;55.130;61.268;2023-04-24T01:40:29;98584.16;;;11.85;35.47
80164;BME280;69489;55.130;61.268;2023-04-24T01:42:55;98593.16;;;11.84;35.27
80164;BME280;69489;55.130;61.268;2023-04-24T01:45:21;98595.41;;;11.81;35.56
80164;BME280;69489;55.130;61.268;2023-04-24T01:47:46;98594.56;;;11.73;35.58
80164;BME280;69489;55.130;61.268;2023-04-24T01:50:14;98581.06;;;11.68;35.64
80164;BME280;69489;55.130;61.268;2023-04-24T01:52:40;98614.66;;;11.83;35.25
80164;BME280;69489;55.130;61.268;2023-04-24T01:55:06;98622.25;;;11.93;35.22
80164;BME280;69489;55.130;61.268;2023-04-24T01:57:32;98598.28;;;11.86;35.30
80164;BME280;69489;55.130;61.268;2023-04-24T01:59:59;98627.16;;;11.96;35.04
80164;BME280;69489;55.130;61.268;2023-04-24T02:02:30;98626.97;;;11.97;34.95
80164;BME280;69489;55.130;61.268;2023-04-24T02:04:56;98618.38;;;11.95;35.17
80164;BME280;69489;55.130;61.268;2023-04-24T02:07:23;98608.72;;;11.87;35.48
80164;BME280;69489;55.130;61.268;2023-04-24T02:09:50;98631.66;;;12.08;35.19
80164;BME280;69489;55.130;61.268;2023-04-24T02:12:16;98629.41;;;12.05;35.29
80164;BME280;69489;55.130;61.268;2023-04-24T02:14:43;98622.03;;;12.01;34.75
80164;BME280;69489;55.130;61.268;2023-04-24T02:17:09;98633.53;;;12.21;34.88
80164;BME280;69489;55.130;61.268;2023-04-24T02:19:35;98622.47;;;12.11;35.07
80164;BME280;69489;55.130;61.268;2023-04-24T02:22:02;98610.59;;;12.07;34.91
80164;BME280;69489;55.130;61.268;2023-04-24T02:24:30;98621.06;;;12.15;34.96
80164;BME280;69489;55.130;61.268;2023-04-24T02:26:56;98597.50;;;12.05;34.57
80164;BME280;69489;55.130;61.268;2023-04-24T02:29:24;98625.78;;;12.33;34.82
80164;BME280;69489;55.130;61.268;2023-04-24T02:31:50;98623.09;;;12.26;34.40
80164;BME280;69489;55.130;61.268;2023-04-24T02:34:16;98634.56;;;12.40;34.63
80164;BME280;69489;55.130;61.268;2023-04-24T02:36:42;98606.53;;;12.24;34.65
80164;BME280;69489;55.130;61.268;2023-04-24T02:39:08;98622.28;;;12.39;34.53
80164;BME280;69489;55.130;61.268;2023-04-24T02:41:34;98641.75;;;12.47;34.47
80164;BME280;69489;55.130;61.268;2023-04-24T02:44:02;98655.44;;;12.57;34.33
80164;BME280;69489;55.130;61.268;2023-04-24T02:46:28;98636.19;;;12.55;34.16
80164;BME280;69489;55.130;61.268;2023-04-24T02:48:53;98647.44;;;12.57;34.47
80164;BME280;69489;55.130;61.268;2023-04-24T02:51:19;98666.09;;;12.64;34.49
80164;BME280;69489;55.130;61.268;2023-04-24T02:53:45;98675.06;;;12.69;34.60
80164;BME280;69489;55.130;61.268;2023-04-24T02:56:11;98674.91;;;12.71;34.42
80164;BME280;69489;55.130;61.268;2023-04-24T02:58:40;98659.94;;;12.63;34.42
80164;BME280;69489;55.130;61.268;2023-04-24T03:01:06;98673.88;;;12.78;34.57
80164;BME280;69489;55.130;61.268;2023-04-24T03:03:32;98674.91;;;12.71;34.53
80164;BME280;69489;55.130;61.268;2023-04-24T03:05:58;98661.56;;;12.64;34.55
80164;BME280;69489;55.130;61.268;2023-04-24T03:08:24;98654.41;;;12.65;34.78
80164;BME280;69489;55.130;61.268;2023-04-24T03:10:50;98690.22;;;12.89;34.79
80164;BME280;69489;55.130;61.268;2023-04-24T03:13:16;98700.25;;;13.00;35.01
80164;BME280;69489;55.130;61.268;2023-04-24T03:15:42;98674.06;;;12.77;34.49
80164;BME280;69489;55.130;61.268;2023-04-24T03:18:08;98702.72;;;12.95;34.57
80164;BME280;69489;55.130;61.268;2023-04-24T03:20:34;98696.19;;;12.91;34.31
80164;BME280;69489;55.130;61.268;2023-04-24T03:23:00;98715.63;;;13.05;34.33
80164;BME280;69489;55.130;61.268;2023-04-24T03:25:26;98713.78;;;13.12;34.73
80164;BME280;69489;55.130;61.268;2023-04-24T03:27:51;98698.41;;;13.01;34.73
80164;BME280;69489;55.130;61.268;2023-04-24T03:30:17;98708.03;;;13.02;34.44
80164;BME280;69489;55.130;61.268;2023-04-24T03:32:43;98720.94;;;13.11;34.68
80164;BME280;69489;55.130;61.268;2023-04-24T03:35:09;98730.13;;;13.29;34.54
80164;BME280;69489;55.130;61.268;2023-04-24T03:37:35;98698.56;;;13.19;34.17
80164;BME280;69489;55.130;61.268;2023-04-24T03:40:01;98716.59;;;13.37;34.44
80164;BME280;69489;55.130;61.268;2023-04-24T03:42:31;98742.41;;;13.43;34.24
80164;BME280;69489;55.130;61.268;2023-04-24T03:44:57;98712.53;;;13.21;34.39
80164;BME280;69489;55.130;61.268;2023-04-24T03:47:23;98693.66;;;13.16;34.35
80164;BME280;69489;55.130;61.268;2023-04-24T03:49:49;98682.78;;;13.18;34.25
80164;BME280;69489;55.130;61.268;2023-04-24T03:52:15;98730.31;;;13.47;34.13
80164;BME280;69489;55.130;61.268;2023-04-24T03:54:41;98729.31;;;13.48;34.51
80164;BME280;69489;55.130;61.268;2023-04-24T03:57:07;98733.78;;;13.55;33.91
80164;BME280;69489;55.130;61.268;2023-04-24T03:59:32;98752.97;;;13.77;33.56
80164;BME280;69489;55.130;61.268;2023-04-24T04:01:58;98754.22;;;13.81;33.65
80164;BME280;69489;55.130;61.268;2023-04-24T04:04:24;98745.81;;;13.77;33.90
80164;BME280;69489;55.130;61.268;2023-04-24T04:06:50;98746.59;;;13.84;33.49
80164;BME280;69489;55.130;61.268;2023-04-24T04:09:16;98742.09;;;13.85;33.81
80164;BME280;69489;55.130;61.268;2023-04-24T04:11:45;98746.78;;;13.90;33.50
80164;BME280;69489;55.130;61.268;2023-04-24T04:14:11;98738.56;;;13.91;33.72
80164;BME280;69489;55.130;61.268;2023-04-24T04:16:36;98745.91;;;14.02;33.51
80164;BME280;69489;55.130;61.268;2023-04-24T04:19:03;98737.91;;;14.02;33.15
80164;BME280;69489;55.130;61.268;2023-04-24T04:21:29;98748.06;;;14.19;33.21
80164;BME280;69489;55.130;61.268;2023-04-24T04:23:56;98736.81;;;14.17;33.49
80164;BME280;69489;55.130;61.268;2023-04-24T04:26:22;98756.88;;;14.26;33.32
80164;BME280;69489;55.130;61.268;2023-04-24T04:28:51;98730.63;;;14.23;32.96
80164;BME280;69489;55.130;61.268;2023-04-24T04:31:19;98748.22;;;14.31;33.04
80164;BME280;69489;55.130;61.268;2023-04-24T04:33:45;98759.25;;;14.41;32.97
80164;BME280;69489;55.130;61.268;2023-04-24T04:36:11;98769.53;;;14.37;32.65
80164;BME280;69489;55.130;61.268;2023-04-24T04:38:37;98768.03;;;14.48;32.78
80164;BME280;69489;55.130;61.268;2023-04-24T04:41:03;98780.88;;;14.65;32.41
80164;BME280;69489;55.130;61.268;2023-04-24T04:43:29;98776.81;;;14.62;32.88
80164;BME280;69489;55.130;61.268;2023-04-24T04:45:57;98766.09;;;14.69;32.58
80164;BME280;69489;55.130;61.268;2023-04-24T04:48:23;98777.53;;;14.76;32.43
80164;BME280;69489;55.130;61.268;2023-04-24T04:50:49;98781.59;;;14.79;32.45
80164;BME280;69489;55.130;61.268;2023-04-24T04:53:15;98776.22;;;14.85;32.52
80164;BME280;69489;55.130;61.268;2023-04-24T04:55:41;98788.94;;;14.90;31.95
80164;BME280;69489;55.130;61.268;2023-04-24T04:58:07;98787.69;;;14.92;32.22
80164;BME280;69489;55.130;61.268;2023-04-24T05:00:33;98793.03;;;14.92;31.80
80164;BME280;69489;55.130;61.268;2023-04-24T05:03:01;98823.50;;;15.10;31.01
80164;BME280;69489;55.130;61.268;2023-04-24T05:05:35;98811.19;;;15.34;30.81
80164;BME280;69489;55.130;61.268;2023-04-24T05:08:01;98808.97;;;15.50;30.80
80164;BME280;69489;55.130;61.268;2023-04-24T05:11:09;98804.47;;;15.50;30.32
80164;BME280;69489;55.130;61.268;2023-04-24T05:14:19;98816.50;;;15.59;30.64
80164;BME280;69489;55.130;61.268;2023-04-24T05:17:45;98796.06;;;15.65;30.68
80164;BME280;69489;55.130;61.268;2023-04-24T05:20:31;98818.56;;;15.83;30.48
80164;BME280;69489;55.130;61.268;2023-04-24T05:22:57;98825.16;;;15.80;30.13
80164;BME280;69489;55.130;61.268;2023-04-24T05:25:23;98811.63;;;15.75;30.33
80164;BME280;69489;55.130;61.268;2023-04-24T05:28:23;98808.19;;;15.68;30.06
80164;BME280;69489;55.130;61.268;2023-04-24T05:47:00;98839.16;;;16.01;30.25
80164;BME280;69489;55.130;61.268;2023-04-24T05:49:27;98838.78;;;16.15;30.36
80164;BME280;69489;55.130;61.268;2023-04-24T05:51:53;98827.66;;;16.30;29.83
80164;BME280;69489;55.130;61.268;2023-04-24T05:54:18;98838.22;;;16.25;29.55
80164;BME280;69489;55.130;61.268;2023-04-24T05:56:44;98834.94;;;16.42;29.62
80164;BME280;69489;55.130;61.268;2023-04-24T05:59:10;98851.53;;;16.50;29.71
80164;BME280;69489;55.130;61.268;2023-04-24T06:01:38;98859.34;;;16.64;29.56
80164;BME280;69489;55.130;61.268;2023-04-24T06:04:04;98842.66;;;16.50;29.31
80164;BME280;69489;55.130;61.268;2023-04-24T06:06:30;98858.44;;;16.70;29.17
80164;BME280;69489;55.130;61.268;2023-04-24T06:08:58;98846.19;;;16.62;28.81
80164;BME280;69489;55.130;61.268;2023-04-24T06:11:25;98817.78;;;16.31;28.90
80164;BME280;69489;55.130;61.268;2023-04-24T06:13:51;98844.63;;;16.43;28.81
80164;BME280;69489;55.130;61.268;2023-04-24T06:16:17;98863.56;;;16.72;29.04
80164;BME280;69489;55.130;61.268;2023-04-24T06:18:44;98869.59;;;16.85;29.19
80164;BME280;69489;55.130;61.268;2023-04-24T06:21:10;98864.47;;;16.84;29.37
80164;BME280;69489;55.130;61.268;2023-04-24T06:23:38;98868.25;;;16.95;29.13
80164;BME280;69489;55.130;61.268;2023-04-24T06:26:24;98852.31;;;16.81;28.91
80164;BME280;69489;55.130;61.268;2023-04-24T06:28:52;98879.91;;;17.00;29.22
80164;BME280;69489;55.130;61.268;2023-04-24T06:31:26;98878.50;;;16.98;28.75
80164;BME280;69489;55.130;61.268;2023-04-24T06:33:54;98872.09;;;16.99;28.92
80164;BME280;69489;55.130;61.268;2023-04-24T06:36:23;98843.78;;;17.03;28.91
80164;BME280;69489;55.130;61.268;2023-04-24T06:38:57;98831.66;;;17.00;28.32
80164;BME280;69489;55.130;61.268;2023-04-24T06:41:23;98881.97;;;17.40;28.93
80164;BME280;69489;55.130;61.268;2023-04-24T06:43:50;98849.94;;;17.03;28.61
80164;BME280;69489;55.130;61.268;2023-04-24T06:46:16;98889.31;;;17.33;29.03
80164;BME280;69489;55.130;61.268;2023-04-24T06:48:42;98885.22;;;17.43;28.42
80164;BME280;69489;55.130;61.268;2023-04-24T06:51:08;98846.03;;;17.18;28.91
80164;BME280;69489;55.130;61.268;2023-04-24T06:53:34;98887.06;;;17.18;28.31
80164;BME280;69489;55.130;61.268;2023-04-24T06:56:00;98874.00;;;17.10;28.44
80164;BME280;69489;55.130;61.268;2023-04-24T06:58:26;98863.34;;;16.92;28.37
80164;BME280;69489;55.130;61.268;2023-04-24T07:00:52;98867.94;;;16.84;28.94
80164;BME280;69489;55.130;61.268;2023-04-24T07:03:18;98863.56;;;16.60;29.49
80164;BME280;69489;55.130;61.268;2023-04-24T07:05:43;98896.84;;;17.13;29.22
80164;BME280;69489;55.130;61.268;2023-04-24T07:08:09;98894.66;;;16.91;28.55
80164;BME280;69489;55.130;61.268;2023-04-24T07:10:36;98889.47;;;16.96;29.14
80164;BME280;69489;55.130;61.268;2023-04-24T07:13:02;98885.53;;;17.11;28.71
80164;BME280;69489;55.130;61.268;2023-04-24T07:15:28;98880.44;;;17.21;28.84
80164;BME280;69489;55.130;61.268;2023-04-24T07:17:54;98889.66;;;17.25;28.58
80164;BME280;69489;55.130;61.268;2023-04-24T07:20:20;98868.22;;;17.37;28.81
80164;BME280;69489;55.130;61.268;2023-04-24T07:22:46;98873.09;;;17.52;28.81
80164;BME280;69489;55.130;61.268;2023-04-24T07:25:13;98863.09;;;17.59;28.95
80164;BME280;69489;55.130;61.268;2023-04-24T07:27:39;98883.38;;;17.67;28.58
80164;BME280;69489;55.130;61.268;2023-04-24T07:30:05;98882.81;;;17.76;29.04
80164;BME280;69489;55.130;61.268;2023-04-24T07:32:32;98877.31;;;17.71;28.19
80164;BME280;69489;55.130;61.268;2023-04-24T07:34:58;98870.34;;;17.58;28.51
80164;BME280;69489;55.130;61.268;2023-04-24T07:37:24;98881.31;;;17.69;27.90
80164;BME280;69489;55.130;61.268;2023-04-24T07:39:49;98884.66;;;17.64;28.23
80164;BME280;69489;55.130;61.268;2023-04-24T07:42:15;98878.94;;;17.49;27.69
80164;BME280;69489;55.130;61.268;2023-04-24T07:44:41;98893.19;;;17.73;27.99
80164;BME280;69489;55.130;61.268;2023-04-24T07:47:08;98884.56;;;17.59;28.16
80164;BME280;69489;55.130;61.268;2023-04-24T07:49:33;98885.28;;;17.90;28.55
80164;BME280;69489;55.130;61.268;2023-04-24T07:52:00;98892.63;;;17.94;28.71
80164;BME280;69489;55.130;61.268;2023-04-24T07:54:28;98884.09;;;17.86;28.57
80164;BME280;69489;55.130;61.268;2023-04-24T07:56:54;98879.19;;;17.83;28.61
80164;BME280;69489;55.130;61.268;2023-04-24T07:59:20;98874.53;;;17.78;28.58
80164;BME280;69489;55.130;61.268;2023-04-24T08:01:46;98859.00;;;17.45;29.05
80164;BME280;69489;55.130;61.268;2023-04-24T08:04:11;98869.25;;;17.59;28.12
80164;BME280;69489;55.130;61.268;2023-04-24T08:06:37;98872.53;;;17.85;28.32
80164;BME280;69489;55.130;61.268;2023-04-24T08:09:03;98865.78;;;17.83;28.46
80164;BME280;69489;55.130;61.268;2023-04-24T08:11:29;98890.28;;;18.10;28.16
80164;BME280;69489;55.130;61.268;2023-04-24T08:13:54;98869.25;;;18.19;28.46
80164;BME280;69489;55.130;61.268;2023-04-24T08:16:20;98888.00;;;18.42;28.64
80164;BME280;69489;55.130;61.268;2023-04-24T08:18:46;98870.34;;;18.46;28.29
80164;BME280;69489;55.130;61.268;2023-04-24T08:21:12;98872.16;;;18.58;28.34
80164;BME280;69489;55.130;61.268;2023-04-24T08:23:42;98866.06;;;18.62;27.79
80164;BME280;69489;55.130;61.268;2023-04-24T08:26:09;98874.38;;;18.61;26.94
80164;BME280;69489;55.130;61.268;2023-04-24T08:28:36;98888.56;;;18.85;27.61
80164;BME280;69489;55.130;61.268;2023-04-24T08:31:02;98874.78;;;18.81;27.85
80164;BME280;69489;55.130;61.268;2023-04-24T08:33:27;98864.78;;;18.94;27.89
80164;BME280;69489;55.130;61.268;2023-04-24T08:36:01;98877.53;;;19.15;27.76
80164;BME280;69489;55.130;61.268;2023-04-24T08:38:27;98881.63;;;19.35;27.97
80164;BME280;69489;55.130;61.268;2023-04-24T08:40:53;98877.03;;;19.18;26.01
80164;BME280;69489;55.130;61.268;2023-04-24T08:43:22;98881.63;;;19.35;25.93
80164;BME280;69489;55.130;61.268;2023-04-24T08:45:48;98862.84;;;19.40;26.28
80164;BME280;69489;55.130;61.268;2023-04-24T08:48:15;98868.81;;;19.59;26.83
80164;BME280;69489;55.130;61.268;2023-04-24T08:50:42;98875.09;;;19.82;27.13
80164;BME280;69489;55.130;61.268;2023-04-24T08:53:12;98848.78;;;19.72;25.82
80164;BME280;69489;55.130;61.268;2023-04-24T08:55:38;98884.19;;;19.98;25.66
80164;BME280;69489;55.130;61.268;2023-04-24T08:58:05;98856.16;;;19.94;25.89
80164;BME280;69489;55.130;61.268;2023-04-24T09:00:32;98884.47;;;20.18;25.53
80164;BME280;69489;55.130;61.268;2023-04-24T09:03:00;98859.44;;;20.01;25.19
80164;BME280;69489;55.130;61.268;2023-04-24T09:05:28;98862.47;;;20.04;25.73
80164;BME280;69489;55.130;61.268;2023-04-24T09:07:55;98863.22;;;20.22;26.18
80164;BME280;69489;55.130;61.268;2023-04-24T09:10:25;98865.50;;;20.30;24.81
80164;BME280;69489;55.130;61.268;2023-04-24T09:12:51;98869.78;;;20.31;24.96
80164;BME280;69489;55.130;61.268;2023-04-24T09:15:18;98875.31;;;20.41;25.14
80164;BME280;69489;55.130;61.268;2023-04-24T09:17:44;98851.69;;;20.27;24.59
80164;BME280;69489;55.130;61.268;2023-04-24T09:20:10;98871.22;;;20.39;24.84
80164;BME280;69489;55.130;61.268;2023-04-24T09:22:36;98864.44;;;20.58;25.33
80164;BME280;69489;55.130;61.268;2023-04-24T09:25:04;98874.22;;;20.65;24.13
80164;BME280;69489;55.130;61.268;2023-04-24T09:27:32;98869.25;;;20.51;24.28
80164;BME280;69489;55.130;61.268;2023-04-24T09:29:58;98862.41;;;20.66;24.65
80164;BME280;69489;55.130;61.268;2023-04-24T09:32:24;98870.84;;;20.74;23.96
80164;BME280;69489;55.130;61.268;2023-04-24T09:35:10;98871.97;;;20.56;24.05
80164;BME280;69489;55.130;61.268;2023-04-24T09:37:38;98864.53;;;20.64;23.77
80164;BME280;69489;55.130;61.268;2023-04-24T09:40:19;98848.31;;;20.86;23.82
80164;BME280;69489;55.130;61.268;2023-04-24T09:42:56;98845.41;;;20.92;23.86
80164;BME280;69489;55.130;61.268;2023-04-24T09:45:37;98864.31;;;21.25;23.55
80164;BME280;69489;55.130;61.268;2023-04-24T09:48:03;98859.41;;;21.22;23.69
80164;BME280;69489;55.130;61.268;2023-04-24T09:50:31;98865.81;;;21.48;23.45
80164;BME280;69489;55.130;61.268;2023-04-24T09:53:05;98887.50;;;21.53;23.33
80164;BME280;69489;55.130;61.268;2023-04-24T09:55:40;98863.81;;;21.33;23.12
80164;BME280;69489;55.130;61.268;2023-04-24T09:58:07;98878.03;;;21.51;22.99
80164;BME280;69489;55.130;61.268;2023-04-24T10:00:33;98871.16;;;21.70;23.12
80164;BME280;69489;55.130;61.268;2023-04-24T10:03:04;98857.28;;;22.04;23.03
80164;BME280;69489;55.130;61.268;2023-04-24T10:05:32;98864.13;;;22.22;22.99
80164;BME280;69489;55.130;61.268;2023-04-24T10:08:04;98872.63;;;22.51;22.64
80164;BME280;69489;55.130;61.268;2023-04-24T10:10:31;98884.06;;;22.64;21.94
80164;BME280;69489;55.130;61.268;2023-04-24T10:12:57;98864.03;;;22.65;22.44
80164;BME280;69489;55.130;61.268;2023-04-24T10:15:26;98879.50;;;22.95;22.51
80164;BME280;69489;55.130;61.268;2023-04-24T10:17:52;98900.69;;;23.19;22.55
80164;BME280;69489;55.130;61.268;2023-04-24T10:20:23;98870.38;;;23.32;21.95
80164;BME280;69489;55.130;61.268;2023-04-24T10:22:51;98869.78;;;23.56;21.88
80164;BME280;69489;55.130;61.268;2023-04-24T10:25:22;98876.28;;;23.60;21.66
80164;BME280;69489;55.130;61.268;2023-04-24T10:27:50;98871.41;;;23.62;22.22
80164;BME280;69489;55.130;61.268;2023-04-24T10:30:17;98881.72;;;23.60;22.04
80164;BME280;69489;55.130;61.268;2023-04-24T10:32:43;98889.56;;;23.62;21.84
80164;BME280;69489;55.130;61.268;2023-04-24T10:35:13;98871.69;;;23.60;21.08
80164;BME280;69489;55.130;61.268;2023-04-24T10:37:45;98870.56;;;23.77;21.73
80164;BME280;69489;55.130;61.268;2023-04-24T10:40:17;98865.97;;;23.93;20.92
80164;BME280;69489;55.130;61.268;2023-04-24T10:42:51;98859.91;;;24.17;21.13
80164;BME280;69489;55.130;61.268;2023-04-24T10:45:20;98876.88;;;24.48;20.75
80164;BME280;69489;55.130;61.268;2023-04-24T10:50:19;98863.13;;;24.29;20.79
80164;BME280;69489;55.130;61.268;2023-04-24T10:52:49;98866.16;;;24.12;20.40
80164;BME280;69489;55.130;61.268;2023-04-24T10:55:57;98877.59;;;24.04;20.30
80164;BME280;69489;55.130;61.268;2023-04-24T10:58:23;98875.72;;;23.89;20.90
80164;BME280;69489;55.130;61.268;2023-04-24T11:00:59;98867.84;;;23.98;20.39
80164;BME280;69489;55.130;61.268;2023-04-24T11:03:30;98871.28;;;24.24;21.09
80164;BME280;69489;55.130;61.268;2023-04-24T11:06:06;98867.56;;;24.04;20.71
80164;BME280;69489;55.130;61.268;2023-04-24T11:08:42;98849.97;;;23.97;20.80
80164;BME280;69489;55.130;61.268;2023-04-24T11:18:51;98843.72;;;23.81;21.11
80164;BME280;69489;55.130;61.268;2023-04-24T11:21:20;98831.78;;;23.97;21.02
80164;BME280;69489;55.130;61.268;2023-04-24T11:23:47;98825.47;;;24.17;21.90
80164;BME280;69489;55.130;61.268;2023-04-24T11:26:22;98842.16;;;24.45;21.37
80164;BME280;69489;55.130;61.268;2023-04-24T11:29:07;98829.41;;;24.51;20.37
80164;BME280;69489;55.130;61.268;2023-04-24T11:31:40;98838.94;;;24.88;20.61
80164;BME280;69489;55.130;61.268;2023-04-24T11:34:14;98830.28;;;25.20;20.14
80164;BME280;69489;55.130;61.268;2023-04-24T11:36:40;98827.53;;;25.54;20.07
80164;BME280;69489;55.130;61.268;2023-04-24T11:39:08;98812.09;;;25.50;19.77
80164;BME280;69489;55.130;61.268;2023-04-24T11:41:34;98818.75;;;25.63;19.92
80164;BME280;69489;55.130;61.268;2023-04-24T11:44:02;98826.22;;;25.76;19.10
80164;BME280;69489;55.130;61.268;2023-04-24T11:46:30;98827.53;;;26.08;17.91
80164;BME280;69489;55.130;61.268;2023-04-24T11:48:57;98858.63;;;26.45;17.64
80164;BME280;69489;55.130;61.268;2023-04-24T11:51:27;98830.53;;;26.69;17.69
80164;BME280;69489;55.130;61.268;2023-04-24T11:53:55;98829.38;;;26.75;17.65
80164;BME280;69489;55.130;61.268;2023-04-24T11:56:24;98822.16;;;26.84;17.70
80164;BME280;69489;55.130;61.268;2023-04-24T11:58:54;98807.63;;;26.89;18.37
80164;BME280;69489;55.130;61.268;2023-04-24T12:01:22;98845.41;;;26.95;16.44
80164;BME280;69489;55.130;61.268;2023-04-24T12:03:48;98822.59;;;26.91;16.01
80164;BME280;69489;55.130;61.268;2023-04-24T12:06:16;98840.81;;;27.10;16.31
80164;BME280;69489;55.130;61.268;2023-04-24T12:08:56;98829.56;;;27.30;15.89
80164;BME280;69489;55.130;61.268;2023-04-24T12:11:23;98824.31;;;27.53;15.30
80164;BME280;69489;55.130;61.268;2023-04-24T12:13:48;98838.38;;;28.02;15.34
80164;BME280;69489;55.130;61.268;2023-04-24T12:16:14;98825.03;;;28.14;15.10
80164;BME280;69489;55.130;61.268;2023-04-24T12:18:44;98829.56;;;28.33;15.15
80164;BME280;69489;55.130;61.268;2023-04-24T12:21:23;98818.56;;;28.75;14.80
80164;BME280;69489;55.130;61.268;2023-04-24T12:23:54;98817.25;;;28.95;14.07
80164;BME280;69489;55.130;61.268;2023-04-24T12:26:21;98779.59;;;28.83;14.80
80164;BME280;69489;55.130;61.268;2023-04-24T12:28:49;98828.75;;;29.28;13.82
80164;BME280;69489;55.130;61.268;2023-04-24T12:31:16;98816.53;;;29.57;14.46
80164;BME280;69489;55.130;61.268;2023-04-24T12:34:23;98800.00;;;30.02;13.82
80164;BME280;69489;55.130;61.268;2023-04-24T12:37:12;98818.13;;;30.56;12.76
80164;BME280;69489;55.130;61.268;2023-04-24T12:39:38;98806.00;;;30.39;12.93
80164;BME280;69489;55.130;61.268;2023-04-24T12:42:11;98792.31;;;30.39;12.76
80164;BME280;69489;55.130;61.268;2023-04-24T12:44:38;98803.75;;;30.33;13.55
80164;BME280;69489;55.130;61.268;2023-04-24T12:47:04;98811.03;;;30.55;14.21
80164;BME280;69489;55.130;61.268;2023-04-24T12:49:30;98825.84;;;30.80;13.47
80164;BME280;69489;55.130;61.268;2023-04-24T12:51:57;98815.41;;;30.99;12.12
80164;BME280;69489;55.130;61.268;2023-04-24T12:54:23;98813.94;;;30.85;11.82
80164;BME280;69489;55.130;61.268;2023-04-24T12:56:49;98804.75;;;30.98;12.32
80164;BME280;69489;55.130;61.268;2023-04-24T14:21:03;98850.31;;;31.38;11.18
80164;BME280;69489;55.130;61.268;2023-04-24T14:23:49;98853.13;;;31.03;11.60
80164;BME280;69489;55.130;61.268;2023-04-24T14:26:17;98843.41;;;30.53;11.75
80164;BME280;69489;55.130;61.268;2023-04-24T14:28:42;98827.75;;;30.36;11.86
80164;BME280;69489;55.130;61.268;2023-04-24T14:31:08;98826.25;;;30.21;12.12
80164;BME280;69489;55.130;61.268;2023-04-24T14:33:36;98836.34;;;30.03;11.74
80164;BME280;69489;55.130;61.268;2023-04-24T14:36:02;98826.06;;;29.68;12.51
80164;BME280;69489;55.130;61.268;2023-04-24T14:38:31;98832.53;;;29.18;12.99
80164;BME280;69489;55.130;61.268;2023-04-24T14:40:57;98829.59;;;28.92;12.80
80164;BME280;69489;55.130;61.268;2023-04-24T14:43:23;98838.94;;;28.54;13.44